Refine Search
Year Filed

2012 ×

Court

Texas Eastern ×

Click on desired case number or refine your search to continue

Case TitleCourtCase NoChpDate FiledClosedDisposition
R.C. Hospitality, Inc.Texas Eastern1:12-bk-104211107/03/201208/28/2012Dismissed for Other Reason
Lon Morris CollegeTexas Eastern6:12-bk-605571107/02/2012
United Commercial Cast Stone, Inc.Texas Eastern4:12-bk-425051109/13/2012
Ceramic Arts Dental Laboratory, LLCTexas Eastern4:12-bk-41047704/20/2012
Nashville Biltmore, L.P.Texas Eastern4:12-bk-419331107/19/2012
Five Hundred Center, LLCTexas Eastern4:12-bk-435201112/31/201206/21/2013Dismissed for Other Reason 06/06/2013
Pemberly Partners, Ltd.Texas Eastern4:12-bk-435291112/31/2012
A.D.A. Group, Inc.Texas Eastern4:12-bk-43532712/31/2012
Emersen Enclave Development Co, LLCTexas Eastern1:12-bk-107741112/03/2012
Imagine Hospitality, Inc.Texas Eastern1:12-bk-107671112/03/2012
Southern One Twenty One Investments, Ltd.Texas Eastern4:12-bk-433111112/03/2012
United Texas Petroleum IncTexas Eastern4:12-bk-43329712/05/201203/05/2013
Brewer Educational Resources, Inc.Texas Eastern4:12-bk-433341112/06/2012
N&M Schluter Family Limited PartnershipTexas Eastern4:12-bk-431041111/13/2012
JMJJ, LLCTexas Eastern4:12-bk-430121111/05/2012
East Crockett Medical Building, Corp.Texas Eastern1:12-bk-107191111/05/201206/13/2013Dismissed for Other Reason 04/30/2013
Frisco Summit, LPTexas Eastern4:12-bk-428521110/23/2012
Winn Professional Engineers and Constructors, LLCTexas Eastern6:12-bk-608821110/25/201207/25/2014Dismissed for Other Reason 01/09/2014
The Stretford at the Cascades, L.P.Texas Eastern6:12-bk-60465706/05/201201/20/2015Discharge Not Applicable
Mansehra, Inc.Texas Eastern1:12-bk-10495708/06/201207/09/2015Discharge Not Applicable
AKAL IX Management LLCTexas Eastern4:12-bk-427341110/04/201205/02/2014Discharge Not Applicable
KT Worldwide Inc.Texas Eastern6:12-bk-608041110/01/2012
JEM Marketing, Inc.Texas Eastern4:12-bk-42024707/31/2012
Leo Properties & Investments, LLCTexas Eastern4:12-bk-423411108/30/2012
Pineywoods Home Team Affordable Housing, Inc.Texas Eastern9:12-bk-902551109/04/2012
Emission Solutions, Inc.Texas Eastern4:12-bk-425301109/14/2012
Pet Ecology Brands, Inc.Texas Eastern4:12-bk-42550709/18/2012
TPC Controls, Inc.Texas Eastern4:12-bk-422711108/23/201209/25/2013Dismissed for Other Reason 09/10/2013
The Lead Business Connection, Inc.Texas Eastern4:12-bk-425851109/21/2012
Janlaw Properties, Inc.Texas Eastern4:12-bk-421021108/06/2012
Amaranth, Inc.Texas Eastern4:12-bk-421431108/06/201201/03/2013Dismissed for Other Reason 12/10/2012
MMD Hotel Kilgore LPTexas Eastern6:12-bk-605791107/10/2012
Metroplex Lucky Star, LLCTexas Eastern4:12-bk-421491108/06/2012
Zimcal CorporationTexas Eastern4:12-bk-421041108/06/2012
MM Interests LLCTexas Eastern1:12-bk-104761107/31/201205/21/2013Dismissed for Other Reason 03/13/2013
U-Krane, Inc.Texas Eastern1:12-bk-104981108/06/201204/23/2013Dismissed for Other Reason 04/02/2013
True Beginnings, LLCTexas Eastern4:12-bk-42061708/01/2012
American Crane, Rigging and Sling Consultants, IncTexas Eastern1:12-bk-104971108/06/201204/23/2013Dismissed for Other Reason 04/02/2013
Venus Hospitality, LLCTexas Eastern1:12-bk-104141107/02/201208/10/2017Discharge Not Applicable
Xtreme Iron Hickory Creek, LLCTexas Eastern4:12-bk-417501106/29/201205/08/2013Dismissed for Other Reason 04/09/2013
Oakmont Construction, Inc.Texas Eastern4:12-bk-41605706/14/2012
Behringer Harvard Frisco Square, LPTexas Eastern4:12-bk-415861106/13/2012
BHFS III, LLCTexas Eastern4:12-bk-415831106/13/2012
Illinois Laundromat, Inc.Texas Eastern4:12-bk-415781106/12/2012
Dexter Professional Park Partners, LPTexas Eastern4:12-bk-414921106/04/201211/14/2012Dismissed for Other Reason 10/30/2012
Dexter Professional Park, LLCTexas Eastern4:12-bk-415121106/04/2012
BHFS Theater, LLCTexas Eastern4:12-bk-415851106/13/2012
BHFS IV, LLCTexas Eastern4:12-bk-415841106/13/2012
BHFS I, LLC and BHFS II, LLCTexas Eastern4:12-bk-415811106/13/2012
Sage Physician Partners, Inc.Texas Eastern4:12-bk-413141105/14/201201/23/2018Discharge Not Applicable